createdAt,value
2018-12-01T00:01:20.382Z,83.96
2018-12-01T00:03:57.354Z,83.81
2018-12-01T00:06:36.434Z,84.02
2018-12-01T00:09:15.702Z,84.02
2018-12-01T00:11:51.454Z,84.30
2018-12-01T00:14:28.215Z,84.33
2018-12-01T00:17:05.883Z,84.44
2018-12-01T00:19:42.700Z,84.46
2018-12-01T00:22:21.482Z,84.28
2018-12-01T00:24:57.479Z,83.97
2018-12-01T00:27:35.098Z,84.32
2018-12-01T00:30:17.138Z,84.39
2018-12-01T00:32:54.701Z,84.53
2018-12-01T00:35:31.339Z,84.42
2018-12-01T00:38:07.787Z,84.17
2018-12-01T00:40:44.294Z,84.59
2018-12-01T00:43:23.696Z,84.70
2018-12-01T00:46:00.150Z,84.56
2018-12-01T00:48:37.044Z,84.83
2018-12-01T00:51:11.885Z,84.80
2018-12-01T00:53:51.027Z,84.34
2018-12-01T00:56:29.324Z,84.46
2018-12-01T00:59:07.033Z,84.82
2018-12-01T01:01:45.263Z,84.62
2018-12-01T01:04:22.799Z,84.56
2018-12-01T01:06:59.895Z,84.66
2018-12-01T01:09:38.376Z,84.53
2018-12-01T01:12:15.618Z,84.67
2018-12-01T01:14:53.057Z,84.78
2018-12-01T01:17:29.719Z,84.66
2018-12-01T01:20:09.116Z,84.94
2018-12-01T01:22:46.367Z,85.11
2018-12-01T01:25:24.566Z,85.33
2018-12-01T01:28:01.299Z,85.08
2018-12-01T01:30:31.459Z,84.93
2018-12-01T01:33:17.653Z,84.67
2018-12-01T01:35:47.064Z,85.01
2018-12-01T01:38:16.377Z,84.97
2018-12-01T01:40:45.776Z,85.03
2018-12-01T01:43:15.079Z,85.10
2018-12-01T01:45:44.454Z,84.98
2018-12-01T01:48:13.755Z,85.16
2018-12-01T01:53:28.802Z,84.88
2018-12-01T01:55:58.128Z,85.16
2018-12-01T01:58:30.558Z,85.26
2018-12-01T02:00:59.894Z,85.11
2018-12-01T02:03:29.213Z,85.27
2018-12-01T02:05:58.550Z,85.33
2018-12-01T02:08:27.853Z,85.16
2018-12-01T02:10:57.164Z,85.23
2018-12-01T02:13:26.484Z,85.35
2018-12-01T02:16:02.286Z,85.47
2018-12-01T02:18:31.630Z,85.31
2018-12-01T02:21:01.021Z,85.15
2018-12-01T02:23:30.356Z,85.03
2018-12-01T02:25:59.731Z,85.37
2018-12-01T02:28:29.044Z,85.34
2018-12-01T02:30:58.429Z,85.31
2018-12-01T02:33:27.760Z,85.18
2018-12-01T02:35:57.087Z,84.99
2018-12-01T02:38:26.633Z,85.15
2018-12-01T02:40:55.978Z,85.46
2018-12-01T02:43:25.359Z,85.45
2018-12-01T02:46:11.601Z,85.08
2018-12-01T02:48:40.925Z,85.47
2018-12-01T02:51:10.251Z,85.63
2018-12-01T02:53:39.568Z,85.38
2018-12-01T02:56:08.879Z,85.83
2018-12-01T02:58:38.200Z,85.49
2018-12-01T03:01:07.526Z,85.45
2018-12-01T03:03:36.836Z,85.26
2018-12-01T03:06:06.205Z,85.37
2018-12-01T03:08:35.521Z,85.23
2018-12-01T03:11:06.068Z,85.54
2018-12-01T03:13:35.377Z,85.99
2018-12-01T03:16:06.353Z,85.47
2018-12-01T03:18:35.663Z,85.41
2018-12-01T03:21:06.673Z,85.74
2018-12-01T03:23:36.047Z,85.97
2018-12-01T03:26:07.510Z,85.66
2018-12-01T03:28:36.829Z,85.57
2018-12-01T03:31:06.176Z,85.59
2018-12-01T03:33:35.561Z,85.88
2018-12-01T03:36:06.280Z,85.78
2018-12-01T03:38:35.581Z,85.93
2018-12-01T03:41:06.147Z,86.03
2018-12-01T03:43:35.470Z,85.54
2018-12-01T03:46:06.347Z,85.84
2018-12-01T03:48:35.645Z,85.69
2018-12-01T03:51:06.362Z,85.80
2018-12-01T03:53:35.676Z,85.48
2018-12-01T03:56:06.273Z,85.56
2018-12-01T03:58:35.583Z,85.34
2018-12-01T04:01:06.214Z,85.49
2018-12-01T04:03:35.556Z,85.24
2018-12-01T04:06:06.159Z,85.48
2018-12-01T04:08:35.478Z,85.40
2018-12-01T04:11:04.784Z,85.12
2018-12-01T04:13:34.084Z,85.59
2018-12-01T04:16:03.447Z,85.65
2018-12-01T04:18:32.761Z,85.18
2018-12-01T04:21:02.204Z,85.30
2018-12-01T04:23:31.557Z,85.79
2018-12-01T04:26:00.884Z,84.99
2018-12-01T04:28:30.209Z,85.08
2018-12-01T04:30:59.515Z,85.37
2018-12-01T04:33:28.876Z,85.17
2018-12-01T04:35:58.188Z,85.30
2018-12-01T04:38:27.566Z,85.37
2018-12-01T04:40:56.889Z,84.91
2018-12-01T04:43:26.211Z,85.37
2018-12-01T04:45:55.537Z,85.44
2018-12-01T04:48:24.855Z,85.08
2018-12-01T04:50:54.159Z,85.15
2018-12-01T04:53:23.486Z,85.17
2018-12-01T04:55:52.824Z,85.01
2018-12-01T04:58:22.152Z,85.38
2018-12-01T05:00:51.480Z,85.22
2018-12-01T05:03:20.812Z,85.23
2018-12-01T05:05:50.144Z,85.39
2018-12-01T05:08:19.454Z,85.17
2018-12-01T05:10:48.770Z,85.13
2018-12-01T05:13:18.093Z,85.37
2018-12-01T05:15:47.446Z,85.13
2018-12-01T05:18:16.775Z,85.09
2018-12-01T05:20:46.139Z,85.25
2018-12-01T05:23:15.455Z,85.36
2018-12-01T05:25:44.812Z,85.46
2018-12-01T05:28:14.126Z,85.44
2018-12-01T05:30:43.468Z,85.07
2018-12-01T05:33:12.904Z,85.35
2018-12-01T05:35:42.276Z,85.23
2018-12-01T05:38:11.605Z,85.09
2018-12-01T05:40:41.010Z,85.09
2018-12-01T05:43:10.368Z,85.19
2018-12-01T05:45:39.702Z,85.22
2018-12-01T05:48:09.023Z,85.16
2018-12-01T05:50:38.404Z,85.31
2018-12-01T05:53:07.714Z,85.39
2018-12-01T05:55:37.085Z,85.49
2018-12-01T05:58:06.790Z,85.14
2018-12-01T06:00:36.183Z,85.13
2018-12-01T06:03:07.646Z,85.06
2018-12-01T06:05:37.000Z,85.13
2018-12-01T06:08:07.354Z,85.21
2018-12-01T06:10:36.677Z,85.06
2018-12-01T06:13:06.192Z,85.02
2018-12-01T06:15:35.504Z,85.10
2018-12-01T06:18:06.540Z,85.03
2018-12-01T06:20:35.885Z,84.90
2018-12-01T06:23:06.730Z,84.59
2018-12-01T06:25:36.082Z,84.97
2018-12-01T06:28:06.515Z,85.08
2018-12-01T06:30:35.822Z,85.18
2018-12-01T06:33:06.592Z,84.83
2018-12-01T06:35:35.979Z,84.71
2018-12-01T06:38:07.248Z,84.80
2018-12-01T06:40:36.580Z,84.84
2018-12-01T06:43:06.601Z,85.01
2018-12-01T06:45:35.941Z,84.83
2018-12-01T06:48:06.301Z,85.17
2018-12-01T06:50:35.630Z,85.07
2018-12-01T06:53:04.939Z,85.06
2018-12-01T06:55:35.971Z,84.80
2018-12-01T06:58:05.985Z,84.97
2018-12-01T07:00:35.290Z,84.83
2018-12-01T07:03:06.101Z,84.92
2018-12-01T07:05:35.431Z,85.15
2018-12-01T07:08:06.113Z,84.82
2018-12-01T07:10:35.472Z,85.18
2018-12-01T07:13:07.303Z,84.84
2018-12-01T07:15:38.523Z,85.06
2018-12-01T07:18:24.894Z,85.03
2018-12-01T07:20:54.220Z,85.03
2018-12-01T07:23:23.630Z,85.11
2018-12-01T07:25:52.971Z,84.98
2018-12-01T07:28:22.310Z,84.97
2018-12-01T07:30:51.682Z,85.23
2018-12-01T07:33:20.998Z,85.28
2018-12-01T07:35:50.284Z,84.98
2018-12-01T07:38:19.628Z,85.32
2018-12-01T07:40:48.973Z,85.51
2018-12-01T07:43:18.315Z,85.26
2018-12-01T07:45:47.761Z,85.22
2018-12-01T07:48:17.088Z,85.21
2018-12-01T07:50:46.396Z,85.29
2018-12-01T07:53:17.521Z,85.66
2018-12-01T07:55:45.244Z,85.16
2018-12-01T07:58:14.567Z,85.40
2018-12-01T08:00:43.926Z,85.35
2018-12-01T08:03:13.297Z,85.04
2018-12-01T08:05:42.615Z,85.55
2018-12-01T08:08:11.984Z,84.91
2018-12-01T08:10:41.312Z,85.53
2018-12-01T08:13:10.624Z,85.52
2018-12-01T08:15:39.952Z,86.04
2018-12-01T08:18:09.269Z,85.62
2018-12-01T08:20:38.595Z,85.38
2018-12-01T08:23:07.917Z,85.58
2018-12-01T08:25:37.247Z,85.64
2018-12-01T08:28:08.726Z,85.51
2018-12-01T08:30:38.124Z,85.73
2018-12-01T08:33:07.476Z,85.66
2018-12-01T08:35:36.805Z,85.85
2018-12-01T08:38:06.285Z,85.34
2018-12-01T08:40:35.977Z,85.64
2018-12-01T08:43:06.574Z,85.74
2018-12-01T08:45:35.907Z,85.61
2018-12-01T08:48:07.581Z,85.44
2018-12-01T08:50:37.658Z,85.45
2018-12-01T08:53:07.190Z,85.46
2018-12-01T08:55:36.510Z,85.45
2018-12-01T08:58:06.402Z,85.58
2018-12-01T09:00:42.541Z,85.72
2018-12-01T09:03:26.273Z,85.31
2018-12-01T09:05:56.914Z,85.32
2018-12-01T09:08:26.709Z,85.31
2018-12-01T09:10:56.101Z,85.42
2018-12-01T09:13:25.459Z,85.00
2018-12-01T09:15:54.827Z,85.15
2018-12-01T09:18:24.147Z,85.22
2018-12-01T09:20:53.500Z,85.42
2018-12-01T09:23:22.846Z,85.16
2018-12-01T09:25:52.186Z,85.10
2018-12-01T09:28:21.538Z,85.07
2018-12-01T09:30:50.967Z,84.64
2018-12-01T09:33:20.321Z,84.83
2018-12-01T09:35:49.693Z,84.56
2018-12-01T09:38:19.077Z,84.30
2018-12-01T09:40:48.456Z,84.62
2018-12-01T09:43:17.968Z,84.41
2018-12-01T09:45:47.301Z,84.60
2018-12-01T09:48:16.677Z,84.65
2018-12-01T09:50:46.055Z,84.54
2018-12-01T09:53:15.394Z,84.48
2018-12-01T09:55:44.727Z,84.37
2018-12-01T09:58:14.073Z,84.25
2018-12-01T10:00:43.437Z,84.52
2018-12-01T10:03:12.765Z,84.07
2018-12-01T10:05:42.120Z,83.69
2018-12-01T10:08:11.447Z,83.78
2018-12-01T10:10:40.768Z,83.69
2018-12-01T10:13:10.076Z,83.60
2018-12-01T10:15:39.388Z,83.73
2018-12-01T10:18:09.875Z,83.44
2018-12-01T10:20:39.250Z,83.60
2018-12-01T10:23:12.193Z,83.71
2018-12-01T10:25:41.585Z,83.52
2018-12-01T10:28:11.812Z,83.34
2018-12-01T10:30:41.220Z,83.20
2018-12-01T10:33:10.561Z,83.48
2018-12-01T10:35:39.913Z,82.95
2018-12-01T10:38:15.728Z,83.05
2018-12-01T10:40:45.154Z,82.99
2018-12-01T10:43:14.505Z,83.06
2018-12-01T10:45:43.852Z,83.11
2018-12-01T10:48:13.216Z,82.55
2018-12-01T10:50:42.556Z,82.27
2018-12-01T10:53:11.892Z,82.49
2018-12-01T10:55:41.208Z,82.33
2018-12-01T10:58:19.235Z,82.09
2018-12-01T11:00:55.305Z,81.96
2018-12-01T11:03:34.096Z,82.06
2018-12-01T11:06:11.183Z,81.82
2018-12-01T11:08:47.252Z,81.70
2018-12-01T11:11:16.569Z,81.66
2018-12-01T11:13:45.949Z,81.54
2018-12-01T11:16:15.274Z,81.33
2018-12-01T11:18:44.677Z,81.34
2018-12-01T11:21:14.069Z,81.38
2018-12-01T11:23:43.402Z,81.00
2018-12-01T11:26:12.856Z,81.04
2018-12-01T11:28:42.212Z,80.85
2018-12-01T11:31:11.593Z,81.10
2018-12-01T11:33:40.952Z,80.81
2018-12-01T11:36:10.288Z,80.30
2018-12-01T11:38:39.643Z,79.93
2018-12-01T11:41:09.011Z,80.14
2018-12-01T11:43:38.471Z,80.17
2018-12-01T11:46:07.837Z,80.06
2018-12-01T11:48:37.169Z,79.97
2018-12-01T11:51:06.700Z,79.99
2018-12-01T11:53:36.076Z,79.63
2018-12-01T11:56:06.694Z,79.50
2018-12-01T11:58:36.195Z,79.74
2018-12-01T12:01:06.786Z,79.37
2018-12-01T12:03:36.156Z,79.08
2018-12-01T12:06:06.072Z,79.07
2018-12-01T12:08:35.461Z,78.91
2018-12-01T12:11:06.117Z,78.73
2018-12-01T12:13:35.464Z,78.35
2018-12-01T12:16:06.702Z,78.61
2018-12-01T12:18:36.043Z,78.67
2018-12-01T12:21:06.364Z,78.56
2018-12-01T12:23:37.015Z,77.88
2018-12-01T12:26:06.477Z,77.62
2018-12-01T12:28:35.810Z,77.38
2018-12-01T12:31:06.063Z,77.39
2018-12-01T12:33:35.402Z,77.16
2018-12-01T12:36:06.357Z,77.16
2018-12-01T12:38:35.852Z,76.82
2018-12-01T12:41:06.883Z,76.86
2018-12-01T12:43:36.309Z,77.37
2018-12-01T12:46:06.533Z,77.34
2018-12-01T12:48:35.897Z,77.11
2018-12-01T12:51:06.440Z,76.87
2018-12-01T12:53:35.773Z,76.96
2018-12-01T12:56:05.393Z,76.93
2018-12-01T12:58:34.739Z,76.92
2018-12-01T13:01:04.141Z,76.54
2018-12-01T13:03:33.479Z,76.94
2018-12-01T13:06:02.916Z,77.16
2018-12-01T13:08:32.324Z,76.64
2018-12-01T13:11:01.687Z,76.45
2018-12-01T13:13:31.098Z,77.00
2018-12-01T13:16:00.497Z,76.46
2018-12-01T13:18:29.832Z,76.40
2018-12-01T13:20:59.182Z,76.67
2018-12-01T13:23:28.499Z,76.77
2018-12-01T13:25:57.858Z,76.52
2018-12-01T13:28:27.203Z,76.16
2018-12-01T13:30:59.411Z,76.24
2018-12-01T13:33:29.127Z,76.26
2018-12-01T13:36:01.762Z,76.20
2018-12-01T13:38:32.981Z,75.97
2018-12-01T13:41:06.218Z,76.21
2018-12-01T13:43:37.944Z,74.37
2018-12-01T13:46:09.432Z,75.12
2018-12-01T13:48:38.777Z,75.45
2018-12-01T13:51:10.871Z,75.31
2018-12-01T13:53:43.186Z,75.53
2018-12-01T13:56:12.568Z,75.89
2018-12-01T13:58:41.924Z,75.64
2018-12-01T14:01:11.345Z,75.50
2018-12-01T14:03:40.693Z,75.31
2018-12-01T14:06:10.042Z,75.34
2018-12-01T14:08:42.173Z,75.77
2018-12-01T14:11:14.522Z,75.72
2018-12-01T14:13:46.750Z,75.85
2018-12-01T14:16:18.830Z,75.46
2018-12-01T14:18:51.355Z,75.48
2018-12-01T14:21:22.540Z,75.94
2018-12-01T14:23:51.877Z,75.94
2018-12-01T14:26:21.269Z,75.53
2018-12-01T14:28:50.624Z,75.94
2018-12-01T14:31:22.689Z,75.97
2018-12-01T14:33:54.524Z,75.36
2018-12-01T14:36:26.319Z,75.65
2018-12-01T14:38:57.876Z,76.02
2018-12-01T14:41:30.423Z,76.25
2018-12-01T14:44:02.434Z,76.13
2018-12-01T14:46:34.833Z,76.01
2018-12-01T14:49:04.165Z,76.46
2018-12-01T14:51:33.540Z,76.25
2018-12-01T14:54:02.912Z,76.49
2018-12-01T14:56:32.269Z,76.39
2018-12-01T14:59:01.660Z,76.43
2018-12-01T15:01:34.096Z,76.69
2018-12-01T15:04:06.489Z,77.04
2018-12-01T15:06:38.945Z,76.96
2018-12-01T15:09:12.770Z,76.61
2018-12-01T15:11:45.318Z,76.84
2018-12-01T15:14:17.398Z,77.24
2018-12-01T15:16:49.717Z,76.83
2018-12-01T15:19:22.154Z,76.76
2018-12-01T15:21:54.773Z,77.15
2018-12-01T15:24:27.334Z,77.26
2018-12-01T15:26:56.689Z,77.25
2018-12-01T15:29:29.244Z,76.97
2018-12-01T15:31:58.604Z,77.20
2018-12-01T15:34:27.916Z,77.39
2018-12-01T15:36:57.233Z,77.40
2018-12-01T15:39:29.482Z,77.43
2018-12-01T15:41:58.824Z,77.28
2018-12-01T15:44:28.183Z,77.68
2018-12-01T15:47:03.622Z,77.56
2018-12-01T15:49:32.981Z,77.73
2018-12-01T15:52:02.300Z,77.57
2018-12-01T15:54:31.863Z,77.66
2018-12-01T15:57:01.543Z,77.62
2018-12-01T15:59:31.081Z,77.29
2018-12-01T16:04:32.241Z,77.24
2018-12-01T16:07:01.880Z,77.43
2018-12-01T16:09:34.627Z,77.49
2018-12-01T16:12:08.089Z,77.46
2018-12-01T16:14:37.723Z,77.45
2018-12-01T16:17:10.264Z,77.04
2018-12-01T16:19:42.771Z,77.35
2018-12-01T16:22:15.297Z,77.09
2018-12-01T16:24:47.678Z,77.48
2018-12-01T16:27:21.587Z,77.24
2018-12-01T16:29:50.352Z,77.20
2018-12-01T16:32:20.584Z,77.27
2018-12-01T16:34:50.145Z,77.41
2018-12-01T16:37:22.682Z,77.32
2018-12-01T16:39:54.976Z,77.03
2018-12-01T16:42:27.679Z,77.01
2018-12-01T16:45:00.123Z,77.29
2018-12-01T16:47:32.273Z,77.43
2018-12-01T16:50:04.581Z,77.11
2018-12-01T16:52:34.084Z,77.21
2018-12-01T16:55:03.609Z,76.85
2018-12-01T16:57:33.202Z,76.80
2018-12-01T17:00:02.708Z,77.16
2018-12-01T17:02:32.210Z,76.92
2018-12-01T17:05:01.717Z,77.10
2018-12-01T17:07:31.222Z,76.77
2018-12-01T17:10:00.725Z,77.11
2018-12-01T17:12:30.305Z,77.07
2018-12-01T17:15:00.037Z,76.79
2018-12-01T17:17:29.655Z,77.18
2018-12-01T17:19:59.328Z,76.81
2018-12-01T17:22:28.957Z,77.25
2018-12-01T17:24:58.506Z,77.49
2018-12-01T17:27:28.083Z,77.13
2018-12-01T17:29:57.576Z,77.05
2018-12-01T17:32:27.162Z,77.76
2018-12-01T17:34:56.696Z,77.47
2018-12-01T17:37:26.681Z,77.60
2018-12-01T17:39:56.318Z,77.66
2018-12-01T17:42:25.866Z,77.69
2018-12-01T17:44:55.429Z,77.69
2018-12-01T17:47:25.115Z,78.09
2018-12-01T17:49:55.310Z,77.68
2018-12-01T17:53:27.474Z,78.03
2018-12-01T17:55:56.935Z,78.11
2018-12-01T17:58:26.439Z,78.34
2018-12-01T18:00:55.890Z,77.81
2018-12-01T18:03:25.601Z,78.65
2018-12-01T18:05:55.156Z,78.59
2018-12-01T18:08:25.033Z,79.04
2018-12-01T18:10:55.617Z,79.07
2018-12-01T18:13:27.598Z,78.87
2018-12-01T18:15:57.201Z,78.97
2018-12-01T18:18:26.877Z,79.24
2018-12-01T18:20:56.535Z,79.14
2018-12-01T18:23:26.124Z,79.59
2018-12-01T18:25:56.629Z,79.27
2018-12-01T18:28:45.460Z,80.02
2018-12-01T18:31:20.917Z,79.86
2018-12-01T18:34:12.352Z,80.26
2018-12-01T18:36:41.964Z,80.14
2018-12-01T18:39:16.218Z,80.09
2018-12-01T18:41:45.983Z,80.43
2018-12-01T18:44:15.604Z,80.52
2018-12-01T18:46:45.350Z,80.54
2018-12-01T18:49:15.206Z,80.19
2018-12-01T18:54:20.472Z,80.68
2018-12-01T18:56:50.115Z,80.51
2018-12-01T18:59:20.069Z,80.89
2018-12-01T19:01:52.365Z,81.07
2018-12-01T19:04:21.976Z,81.25
2018-12-01T19:06:51.591Z,81.10
2018-12-01T19:09:21.236Z,81.43
2018-12-01T19:11:50.894Z,81.65
2018-12-01T19:14:20.443Z,81.47
2018-12-01T19:16:50.027Z,81.74
2018-12-01T19:19:19.697Z,81.85
2018-12-01T19:21:49.216Z,81.63
2018-12-01T19:24:18.734Z,81.69
2018-12-01T19:26:48.335Z,81.85
2018-12-01T19:29:17.838Z,81.93
2018-12-01T19:31:47.438Z,82.18
2018-12-01T19:34:16.993Z,82.26
2018-12-01T19:39:20.465Z,82.17
2018-12-01T19:41:50.149Z,82.14
2018-12-01T19:47:01.002Z,82.08
2018-12-01T19:49:30.755Z,82.02
2018-12-01T19:52:00.322Z,81.99
2018-12-01T19:54:29.892Z,82.18
2018-12-01T19:56:59.401Z,82.35
2018-12-01T19:59:29.038Z,82.41
2018-12-01T20:01:58.928Z,82.44
2018-12-01T20:04:28.515Z,82.64
2018-12-01T20:06:58.224Z,82.45
2018-12-01T20:09:27.777Z,82.54
2018-12-01T20:11:57.418Z,82.46
2018-12-01T20:14:27.057Z,82.88
2018-12-01T20:16:57.722Z,82.98
2018-12-01T20:19:28.412Z,82.48
2018-12-01T20:21:57.996Z,82.65
2018-12-01T20:24:27.371Z,82.52
2018-12-01T20:26:57.135Z,83.09
2018-12-01T20:29:26.681Z,83.02
2018-12-01T20:31:56.332Z,83.12
2018-12-01T20:34:26.033Z,82.74
2018-12-01T20:37:10.794Z,82.97
2018-12-01T20:39:43.644Z,82.71
2018-12-01T20:42:13.258Z,82.86
2018-12-01T20:44:42.821Z,83.24
2018-12-01T20:47:12.363Z,82.78
2018-12-01T20:49:41.940Z,83.22
2018-12-01T20:52:11.536Z,82.96
2018-12-01T20:54:45.693Z,83.17
2018-12-01T20:57:20.964Z,83.09
2018-12-01T20:59:50.571Z,83.28
2018-12-01T21:02:20.189Z,83.19
2018-12-01T21:04:49.805Z,83.17
2018-12-01T21:07:19.414Z,83.55
2018-12-01T21:09:48.919Z,83.24
2018-12-01T21:12:18.912Z,82.93
2018-12-01T21:14:48.445Z,83.11
2018-12-01T21:17:17.950Z,83.85
2018-12-01T21:19:47.777Z,83.12
2018-12-01T21:22:17.364Z,83.71
2018-12-01T21:24:46.846Z,83.05
2018-12-01T21:27:16.397Z,83.31
2018-12-01T21:29:45.994Z,83.71
2018-12-01T21:32:15.597Z,83.66
2018-12-01T21:34:45.157Z,83.63
2018-12-01T21:37:14.705Z,83.60
2018-12-01T21:39:44.231Z,83.53
2018-12-01T21:42:13.908Z,83.54
2018-12-01T21:44:43.471Z,83.63
2018-12-01T21:47:13.036Z,83.89
2018-12-01T21:49:42.548Z,84.04
2018-12-01T21:54:42.464Z,84.08
2018-12-01T21:57:11.985Z,83.83
2018-12-01T21:59:41.585Z,83.71
2018-12-01T22:02:11.233Z,83.81
2018-12-01T22:04:40.770Z,84.00
2018-12-01T22:07:10.397Z,84.02
2018-12-01T22:09:39.986Z,84.07
2018-12-01T22:12:09.529Z,83.69
2018-12-01T22:14:39.217Z,83.94
2018-12-01T22:17:09.182Z,83.58
2018-12-01T22:19:39.270Z,84.39
2018-12-01T22:22:08.961Z,84.03
2018-12-01T22:24:38.472Z,84.09
2018-12-01T22:27:08.180Z,84.28
2018-12-01T22:29:37.763Z,84.11
2018-12-01T22:32:07.591Z,84.23
2018-12-01T22:34:37.307Z,84.01
2018-12-01T22:37:06.930Z,84.21
2018-12-01T22:39:36.606Z,84.27
2018-12-01T22:42:06.543Z,84.29
2018-12-01T22:44:37.217Z,84.43
2018-12-01T22:47:07.091Z,84.20
2018-12-01T22:49:36.697Z,84.91
2018-12-01T22:52:06.518Z,84.80
2018-12-01T22:54:37.134Z,84.39
2018-12-01T22:57:07.005Z,84.79
2018-12-01T22:59:36.350Z,84.67
2018-12-01T23:02:06.476Z,84.34
2018-12-01T23:04:35.810Z,84.34
2018-12-01T23:07:06.532Z,84.35
2018-12-01T23:09:35.840Z,84.56
2018-12-01T23:12:06.704Z,84.63
2018-12-01T23:14:36.046Z,84.54
2018-12-01T23:17:06.233Z,84.25
2018-12-01T23:19:35.553Z,84.60
2018-12-01T23:22:06.188Z,84.38
2018-12-01T23:24:35.592Z,84.50
2018-12-01T23:27:06.253Z,84.68
2018-12-01T23:29:35.572Z,84.55
2018-12-01T23:32:06.885Z,84.53
2018-12-01T23:34:36.184Z,84.40
2018-12-01T23:37:06.808Z,84.30
2018-12-01T23:39:36.191Z,84.65
2018-12-01T23:42:09.236Z,84.75
2018-12-01T23:44:38.558Z,84.66
2018-12-01T23:47:07.892Z,84.67
2018-12-01T23:49:37.212Z,85.08
2018-12-01T23:52:09.364Z,84.63
2018-12-01T23:54:38.728Z,84.71
2018-12-01T23:57:09.027Z,84.88
2018-12-01T23:59:38.396Z,84.70
